sensor_id;sensor_type;location;lat;lon;timestamp;temperature;humidity
3790;DHT22;1910;49.042;9.028;2023-09-30T00:01:26;16.60;99.90
3790;DHT22;1910;49.042;9.028;2023-09-30T00:06:18;16.30;99.90
3790;DHT22;1910;49.042;9.028;2023-09-30T00:08:43;16.50;99.90
3790;DHT22;1910;49.042;9.028;2023-09-30T00:11:09;16.30;99.90
3790;DHT22;1910;49.042;9.028;2023-09-30T00:16:01;16.30;99.90
3790;DHT22;1910;49.042;9.028;2023-09-30T00:20:53;16.20;99.90
3790;DHT22;1910;49.042;9.028;2023-09-30T00:23:18;16.10;99.90
3790;DHT22;1910;49.042;9.028;2023-09-30T00:25:46;16.10;99.90
3790;DHT22;1910;49.042;9.028;2023-09-30T00:28:12;16.00;99.90
3790;DHT22;1910;49.042;9.028;2023-09-30T00:30:38;16.00;99.90
3790;DHT22;1910;49.042;9.028;2023-09-30T00:33:04;15.90;99.90
3790;DHT22;1910;49.042;9.028;2023-09-30T00:35:32;15.80;99.90
3790;DHT22;1910;49.042;9.028;2023-09-30T00:37:58;16.00;99.90
3790;DHT22;1910;49.042;9.028;2023-09-30T00:42:49;15.70;99.90
3790;DHT22;1910;49.042;9.028;2023-09-30T00:45:15;15.60;99.90
3790;DHT22;1910;49.042;9.028;2023-09-30T00:47:40;15.90;99.90
3790;DHT22;1910;49.042;9.028;2023-09-30T00:50:07;15.40;99.90
3790;DHT22;1910;49.042;9.028;2023-09-30T00:52:35;15.30;99.90
3790;DHT22;1910;49.042;9.028;2023-09-30T00:55:01;15.60;99.90
3790;DHT22;1910;49.042;9.028;2023-09-30T00:57:29;15.20;99.90
3790;DHT22;1910;49.042;9.028;2023-09-30T00:59:56;15.20;99.90
3790;DHT22;1910;49.042;9.028;2023-09-30T01:02:22;15.30;99.90
3790;DHT22;1910;49.042;9.028;2023-09-30T01:04:48;17.20;99.90
3790;DHT22;1910;49.042;9.028;2023-09-30T01:07:14;15.30;99.90
3790;DHT22;1910;49.042;9.028;2023-09-30T01:12:06;15.30;99.90
3790;DHT22;1910;49.042;9.028;2023-09-30T01:14:34;15.30;99.90
3790;DHT22;1910;49.042;9.028;2023-09-30T01:17:00;15.20;99.90
3790;DHT22;1910;49.042;9.028;2023-09-30T01:21:56;15.30;99.90
3790;DHT22;1910;49.042;9.028;2023-09-30T01:34:13;15.40;99.90
3790;DHT22;1910;49.042;9.028;2023-09-30T01:36:39;15.40;99.90
3790;DHT22;1910;49.042;9.028;2023-09-30T01:43:58;15.50;99.90
3790;DHT22;1910;49.042;9.028;2023-09-30T01:46:25;15.50;99.90
3790;DHT22;1910;49.042;9.028;2023-09-30T01:53:43;15.30;99.90
3790;DHT22;1910;49.042;9.028;2023-09-30T01:58:34;15.10;99.90
3790;DHT22;1910;49.042;9.028;2023-09-30T02:01:02;15.00;99.90
3790;DHT22;1910;49.042;9.028;2023-09-30T02:03:28;16.40;99.90
3790;DHT22;1910;49.042;9.028;2023-09-30T02:10:47;14.80;99.90
3790;DHT22;1910;49.042;9.028;2023-09-30T02:13:13;14.70;99.90
3790;DHT22;1910;49.042;9.028;2023-09-30T02:15:42;14.70;99.90
3790;DHT22;1910;49.042;9.028;2023-09-30T02:18:08;15.70;99.90
3790;DHT22;1910;49.042;9.028;2023-09-30T02:23:02;14.60;99.90
3790;DHT22;1910;49.042;9.028;2023-09-30T02:25:27;14.60;99.90
3790;DHT22;1910;49.042;9.028;2023-09-30T02:27:54;14.50;99.90
3790;DHT22;1910;49.042;9.028;2023-09-30T02:30:19;14.50;99.90
3790;DHT22;1910;49.042;9.028;2023-09-30T02:32:46;14.40;99.90
3790;DHT22;1910;49.042;9.028;2023-09-30T02:35:12;14.50;99.90
3790;DHT22;1910;49.042;9.028;2023-09-30T02:40:04;14.20;99.90
3790;DHT22;1910;49.042;9.028;2023-09-30T02:45:00;14.10;99.90
3790;DHT22;1910;49.042;9.028;2023-09-30T02:47:26;14.10;99.90
3790;DHT22;1910;49.042;9.028;2023-09-30T02:49:52;14.00;99.90
3790;DHT22;1910;49.042;9.028;2023-09-30T02:52:17;14.30;99.90
3790;DHT22;1910;49.042;9.028;2023-09-30T02:54:43;13.90;99.90
3790;DHT22;1910;49.042;9.028;2023-09-30T02:57:08;13.90;99.90
3790;DHT22;1910;49.042;9.028;2023-09-30T03:02:01;13.80;99.90
3790;DHT22;1910;49.042;9.028;2023-09-30T03:04:28;13.80;99.90
3790;DHT22;1910;49.042;9.028;2023-09-30T03:09:22;13.80;99.90
3790;DHT22;1910;49.042;9.028;2023-09-30T03:11:47;14.00;99.90
3790;DHT22;1910;49.042;9.028;2023-09-30T03:14:13;14.00;99.90
3790;DHT22;1910;49.042;9.028;2023-09-30T03:16:40;14.10;99.90
3790;DHT22;1910;49.042;9.028;2023-09-30T03:19:07;14.10;99.90
3790;DHT22;1910;49.042;9.028;2023-09-30T03:21:34;14.10;99.90
3790;DHT22;1910;49.042;9.028;2023-09-30T03:26:28;14.00;99.90
3790;DHT22;1910;49.042;9.028;2023-09-30T03:31:21;14.10;99.90
3790;DHT22;1910;49.042;9.028;2023-09-30T03:33:48;14.20;99.90
3790;DHT22;1910;49.042;9.028;2023-09-30T03:38:40;14.30;99.90
3790;DHT22;1910;49.042;9.028;2023-09-30T03:41:07;14.40;99.90
3790;DHT22;1910;49.042;9.028;2023-09-30T03:43:34;14.40;99.90
3790;DHT22;1910;49.042;9.028;2023-09-30T03:46:02;14.40;99.90
3790;DHT22;1910;49.042;9.028;2023-09-30T03:50:53;14.50;99.90
3790;DHT22;1910;49.042;9.028;2023-09-30T03:53:19;14.60;99.90
3790;DHT22;1910;49.042;9.028;2023-09-30T03:58:11;14.80;99.90
3790;DHT22;1910;49.042;9.028;2023-09-30T04:00:38;17.50;99.90
3790;DHT22;1910;49.042;9.028;2023-09-30T04:03:05;14.80;99.90
3790;DHT22;1910;49.042;9.028;2023-09-30T04:05:31;14.90;99.90
3790;DHT22;1910;49.042;9.028;2023-09-30T04:08:01;14.90;99.90
3790;DHT22;1910;49.042;9.028;2023-09-30T04:10:27;14.90;99.90
3790;DHT22;1910;49.042;9.028;2023-09-30T04:17:48;15.00;99.90
3790;DHT22;1910;49.042;9.028;2023-09-30T04:22:48;14.90;99.90
3790;DHT22;1910;49.042;9.028;2023-09-30T04:25:17;14.90;99.90
3790;DHT22;1910;49.042;9.028;2023-09-30T04:27:43;14.80;99.90
3790;DHT22;1910;49.042;9.028;2023-09-30T04:30:11;14.80;99.90
3790;DHT22;1910;49.042;9.028;2023-09-30T04:32:37;14.70;99.90
3790;DHT22;1910;49.042;9.028;2023-09-30T04:35:06;14.70;99.90
3790;DHT22;1910;49.042;9.028;2023-09-30T04:37:36;14.60;99.90
3790;DHT22;1910;49.042;9.028;2023-09-30T04:40:08;14.60;99.90
3790;DHT22;1910;49.042;9.028;2023-09-30T04:42:44;14.60;99.90
3790;DHT22;1910;49.042;9.028;2023-09-30T04:45:11;14.50;99.90
3790;DHT22;1910;49.042;9.028;2023-09-30T04:47:37;14.50;99.90
3790;DHT22;1910;49.042;9.028;2023-09-30T04:50:07;14.50;99.90
3790;DHT22;1910;49.042;9.028;2023-09-30T04:52:34;14.50;99.90
3790;DHT22;1910;49.042;9.028;2023-09-30T04:55:00;14.60;99.90
3790;DHT22;1910;49.042;9.028;2023-09-30T04:57:26;14.70;99.90
3790;DHT22;1910;49.042;9.028;2023-09-30T04:59:52;14.60;99.90
3790;DHT22;1910;49.042;9.028;2023-09-30T05:07:09;14.80;99.90
3790;DHT22;1910;49.042;9.028;2023-09-30T05:12:01;14.70;99.90
3790;DHT22;1910;49.042;9.028;2023-09-30T05:14:29;14.70;99.90
3790;DHT22;1910;49.042;9.028;2023-09-30T05:16:55;14.80;99.90
3790;DHT22;1910;49.042;9.028;2023-09-30T05:19:22;14.70;99.90
3790;DHT22;1910;49.042;9.028;2023-09-30T05:21:48;14.70;99.90
3790;DHT22;1910;49.042;9.028;2023-09-30T05:24:14;14.50;99.90
3790;DHT22;1910;49.042;9.028;2023-09-30T05:26:40;14.50;99.90
3790;DHT22;1910;49.042;9.028;2023-09-30T05:31:32;14.30;99.90
3790;DHT22;1910;49.042;9.028;2023-09-30T05:43:42;13.90;99.90
3790;DHT22;1910;49.042;9.028;2023-09-30T05:51:01;14.10;99.90
3790;DHT22;1910;49.042;9.028;2023-09-30T05:53:28;14.10;99.90
3790;DHT22;1910;49.042;9.028;2023-09-30T05:55:53;14.20;99.90
3790;DHT22;1910;49.042;9.028;2023-09-30T06:00:46;14.10;99.90
3790;DHT22;1910;49.042;9.028;2023-09-30T06:03:12;14.40;99.90
3790;DHT22;1910;49.042;9.028;2023-09-30T06:05:41;14.70;99.90
3790;DHT22;1910;49.042;9.028;2023-09-30T06:08:08;15.00;99.90
3790;DHT22;1910;49.042;9.028;2023-09-30T06:13:04;15.20;99.90
3790;DHT22;1910;49.042;9.028;2023-09-30T06:15:31;15.50;99.90
3790;DHT22;1910;49.042;9.028;2023-09-30T06:17:57;15.70;99.90
3790;DHT22;1910;49.042;9.028;2023-09-30T06:22:52;16.20;99.90
3790;DHT22;1910;49.042;9.028;2023-09-30T06:25:19;16.30;99.90
3790;DHT22;1910;49.042;9.028;2023-09-30T06:27:46;16.30;99.90
3790;DHT22;1910;49.042;9.028;2023-09-30T06:30:14;16.50;99.90
3790;DHT22;1910;49.042;9.028;2023-09-30T06:32:41;16.20;99.90
3790;DHT22;1910;49.042;9.028;2023-09-30T06:35:07;16.30;99.90
3790;DHT22;1910;49.042;9.028;2023-09-30T06:37:39;16.60;99.90
3790;DHT22;1910;49.042;9.028;2023-09-30T06:40:09;16.70;99.90
3790;DHT22;1910;49.042;9.028;2023-09-30T06:42:37;17.60;99.90
3790;DHT22;1910;49.042;9.028;2023-09-30T06:45:03;18.40;99.90
3790;DHT22;1910;49.042;9.028;2023-09-30T06:47:36;19.10;99.90
3790;DHT22;1910;49.042;9.028;2023-09-30T06:50:03;20.40;99.90
3790;DHT22;1910;49.042;9.028;2023-09-30T06:52:37;20.30;99.90
3790;DHT22;1910;49.042;9.028;2023-09-30T06:55:03;20.20;99.90
3790;DHT22;1910;49.042;9.028;2023-09-30T06:57:36;20.00;99.90
3790;DHT22;1910;49.042;9.028;2023-09-30T07:00:05;21.40;99.90
3790;DHT22;1910;49.042;9.028;2023-09-30T07:05:00;21.60;99.90
3790;DHT22;1910;49.042;9.028;2023-09-30T07:12:17;22.10;99.90
3790;DHT22;1910;49.042;9.028;2023-09-30T07:14:43;21.30;99.90
3790;DHT22;1910;49.042;9.028;2023-09-30T07:17:08;21.50;99.90
3790;DHT22;1910;49.042;9.028;2023-09-30T07:19:34;21.50;99.90
3790;DHT22;1910;49.042;9.028;2023-09-30T07:22:00;20.90;99.90
3790;DHT22;1910;49.042;9.028;2023-09-30T07:24:25;21.00;99.90
3790;DHT22;1910;49.042;9.028;2023-09-30T07:26:51;21.20;99.90
3790;DHT22;1910;49.042;9.028;2023-09-30T07:29:16;22.10;99.90
3790;DHT22;1910;49.042;9.028;2023-09-30T07:36:34;23.70;99.90
3790;DHT22;1910;49.042;9.028;2023-09-30T07:41:26;23.80;99.90
3790;DHT22;1910;49.042;9.028;2023-09-30T07:43:52;23.90;99.90
3790;DHT22;1910;49.042;9.028;2023-09-30T07:48:43;24.90;99.90
3790;DHT22;1910;49.042;9.028;2023-09-30T07:51:09;25.80;99.90
3790;DHT22;1910;49.042;9.028;2023-09-30T07:56:05;26.20;99.90
3790;DHT22;1910;49.042;9.028;2023-09-30T07:58:31;25.50;99.90
3790;DHT22;1910;49.042;9.028;2023-09-30T08:00:57;26.20;99.90
3790;DHT22;1910;49.042;9.028;2023-09-30T08:03:22;26.40;99.90
3790;DHT22;1910;49.042;9.028;2023-09-30T08:05:48;27.10;99.90
3790;DHT22;1910;49.042;9.028;2023-09-30T08:08:13;28.00;99.90
3790;DHT22;1910;49.042;9.028;2023-09-30T08:10:39;28.20;99.90
3790;DHT22;1910;49.042;9.028;2023-09-30T08:13:06;28.60;99.90
3790;DHT22;1910;49.042;9.028;2023-09-30T08:17:58;28.10;98.10
3790;DHT22;1910;49.042;9.028;2023-09-30T08:22:50;29.90;96.60
3790;DHT22;1910;49.042;9.028;2023-09-30T08:25:15;31.20;93.60
3790;DHT22;1910;49.042;9.028;2023-09-30T08:27:41;30.20;91.30
3790;DHT22;1910;49.042;9.028;2023-09-30T08:30:08;29.40;92.90
3790;DHT22;1910;49.042;9.028;2023-09-30T08:32:36;29.30;92.50
3790;DHT22;1910;49.042;9.028;2023-09-30T08:35:03;29.40;92.80
3790;DHT22;1910;49.042;9.028;2023-09-30T08:37:29;29.90;92.50
3790;DHT22;1910;49.042;9.028;2023-09-30T08:39:55;30.00;90.30
3790;DHT22;1910;49.042;9.028;2023-09-30T08:42:22;30.20;89.50
3790;DHT22;1910;49.042;9.028;2023-09-30T08:44:52;31.70;89.60
3790;DHT22;1910;49.042;9.028;2023-09-30T08:47:20;30.90;85.30
3790;DHT22;1910;49.042;9.028;2023-09-30T08:49:48;31.50;84.40
3790;DHT22;1910;49.042;9.028;2023-09-30T08:52:16;30.40;80.10
3790;DHT22;1910;49.042;9.028;2023-09-30T08:54:42;30.40;80.90
3790;DHT22;1910;49.042;9.028;2023-09-30T08:57:12;28.50;88.00
3790;DHT22;1910;49.042;9.028;2023-09-30T08:59:41;28.50;89.20
3790;DHT22;1910;49.042;9.028;2023-09-30T09:02:10;28.70;88.60
3790;DHT22;1910;49.042;9.028;2023-09-30T09:04:39;29.40;87.90
3790;DHT22;1910;49.042;9.028;2023-09-30T09:07:04;30.50;84.80
3790;DHT22;1910;49.042;9.028;2023-09-30T09:09:30;30.50;85.10
3790;DHT22;1910;49.042;9.028;2023-09-30T09:11:57;30.80;84.60
3790;DHT22;1910;49.042;9.028;2023-09-30T09:14:39;31.10;82.50
3790;DHT22;1910;49.042;9.028;2023-09-30T09:17:07;31.00;82.00
3790;DHT22;1910;49.042;9.028;2023-09-30T09:19:33;31.80;81.80
3790;DHT22;1910;49.042;9.028;2023-09-30T09:22:00;30.80;80.70
3790;DHT22;1910;49.042;9.028;2023-09-30T09:24:34;30.20;80.50
3790;DHT22;1910;49.042;9.028;2023-09-30T09:27:07;28.50;85.50
3790;DHT22;1910;49.042;9.028;2023-09-30T09:29:36;28.40;86.50
3790;DHT22;1910;49.042;9.028;2023-09-30T09:34:35;28.20;90.60
3790;DHT22;1910;49.042;9.028;2023-09-30T09:37:16;25.90;92.00
3790;DHT22;1910;49.042;9.028;2023-09-30T09:40:08;25.80;92.40
3790;DHT22;1910;49.042;9.028;2023-09-30T09:42:33;25.10;94.00
3790;DHT22;1910;49.042;9.028;2023-09-30T09:45:04;24.50;95.70
3790;DHT22;1910;49.042;9.028;2023-09-30T09:47:32;23.20;99.10
3790;DHT22;1910;49.042;9.028;2023-09-30T09:49:58;23.60;99.70
3790;DHT22;1910;49.042;9.028;2023-09-30T09:52:25;22.90;99.90
3790;DHT22;1910;49.042;9.028;2023-09-30T09:57:18;23.10;99.90
3790;DHT22;1910;49.042;9.028;2023-09-30T09:59:44;23.00;99.90
3790;DHT22;1910;49.042;9.028;2023-09-30T10:02:15;23.10;99.90
3790;DHT22;1910;49.042;9.028;2023-09-30T10:04:42;23.30;99.90
3790;DHT22;1910;49.042;9.028;2023-09-30T10:07:12;22.40;99.90
3790;DHT22;1910;49.042;9.028;2023-09-30T10:09:44;22.40;99.90
3790;DHT22;1910;49.042;9.028;2023-09-30T10:12:12;22.10;99.90
3790;DHT22;1910;49.042;9.028;2023-09-30T10:14:38;22.50;99.90
3790;DHT22;1910;49.042;9.028;2023-09-30T10:17:03;21.70;99.90
3790;DHT22;1910;49.042;9.028;2023-09-30T10:19:29;22.90;99.90
3790;DHT22;1910;49.042;9.028;2023-09-30T10:24:49;21.80;99.90
3790;DHT22;1910;49.042;9.028;2023-09-30T10:37:51;21.70;99.90
3790;DHT22;1910;49.042;9.028;2023-09-30T10:40:28;22.10;99.90
3790;DHT22;1910;49.042;9.028;2023-09-30T10:42:53;22.30;99.90
3790;DHT22;1910;49.042;9.028;2023-09-30T10:50:59;21.90;99.90
3790;DHT22;1910;49.042;9.028;2023-09-30T10:53:26;24.40;99.90
3790;DHT22;1910;49.042;9.028;2023-09-30T10:55:56;23.40;99.90
3790;DHT22;1910;49.042;9.028;2023-09-30T10:58:45;22.20;99.90
3790;DHT22;1910;49.042;9.028;2023-09-30T11:01:12;22.30;99.90
3790;DHT22;1910;49.042;9.028;2023-09-30T11:03:42;21.90;99.90
3790;DHT22;1910;49.042;9.028;2023-09-30T11:06:14;21.90;99.90
3790;DHT22;1910;49.042;9.028;2023-09-30T11:08:54;22.50;99.90
3790;DHT22;1910;49.042;9.028;2023-09-30T11:11:39;23.20;99.90
3790;DHT22;1910;49.042;9.028;2023-09-30T11:16:46;23.70;99.90
3790;DHT22;1910;49.042;9.028;2023-09-30T11:19:12;23.70;99.90
3790;DHT22;1910;49.042;9.028;2023-09-30T11:21:42;23.30;99.90
3790;DHT22;1910;49.042;9.028;2023-09-30T11:24:09;23.20;99.90
3790;DHT22;1910;49.042;9.028;2023-09-30T11:26:35;23.30;99.90
3790;DHT22;1910;49.042;9.028;2023-09-30T11:29:12;23.90;99.90
3790;DHT22;1910;49.042;9.028;2023-09-30T11:31:39;25.70;99.90
3790;DHT22;1910;49.042;9.028;2023-09-30T11:36:34;24.30;99.90
3790;DHT22;1910;49.042;9.028;2023-09-30T11:41:37;24.70;99.90
3790;DHT22;1910;49.042;9.028;2023-09-30T11:44:08;24.50;98.70
3790;DHT22;1910;49.042;9.028;2023-09-30T11:46:56;24.40;99.90
3790;DHT22;1910;49.042;9.028;2023-09-30T11:49:39;22.70;99.90
3790;DHT22;1910;49.042;9.028;2023-09-30T11:52:11;22.30;99.90
3790;DHT22;1910;49.042;9.028;2023-09-30T11:54:44;22.30;99.90
3790;DHT22;1910;49.042;9.028;2023-09-30T11:57:12;23.20;99.10
3790;DHT22;1910;49.042;9.028;2023-09-30T11:59:40;24.20;99.70
3790;DHT22;1910;49.042;9.028;2023-09-30T12:04:34;23.10;98.90
3790;DHT22;1910;49.042;9.028;2023-09-30T12:07:00;22.80;99.10
3790;DHT22;1910;49.042;9.028;2023-09-30T12:09:25;22.40;99.90
3790;DHT22;1910;49.042;9.028;2023-09-30T12:11:53;22.40;99.90
3790;DHT22;1910;49.042;9.028;2023-09-30T12:16:46;22.00;99.90
3790;DHT22;1910;49.042;9.028;2023-09-30T12:19:19;22.20;99.90
3790;DHT22;1910;49.042;9.028;2023-09-30T12:24:14;21.70;99.90
3790;DHT22;1910;49.042;9.028;2023-09-30T12:26:45;21.60;99.90
3790;DHT22;1910;49.042;9.028;2023-09-30T12:29:20;21.50;99.90
3790;DHT22;1910;49.042;9.028;2023-09-30T12:31:48;21.70;99.90
3790;DHT22;1910;49.042;9.028;2023-09-30T12:34:14;21.70;99.90
3790;DHT22;1910;49.042;9.028;2023-09-30T12:36:40;22.20;99.80
3790;DHT22;1910;49.042;9.028;2023-09-30T12:39:07;24.10;99.90
3790;DHT22;1910;49.042;9.028;2023-09-30T12:41:41;22.20;99.90
3790;DHT22;1910;49.042;9.028;2023-09-30T12:44:08;23.10;99.90
3790;DHT22;1910;49.042;9.028;2023-09-30T12:51:28;22.20;99.00
3790;DHT22;1910;49.042;9.028;2023-09-30T12:53:54;22.00;98.70
3790;DHT22;1910;49.042;9.028;2023-09-30T12:56:20;24.30;99.20
3790;DHT22;1910;49.042;9.028;2023-09-30T12:58:45;22.30;98.40
3790;DHT22;1910;49.042;9.028;2023-09-30T13:01:11;22.40;98.20
3790;DHT22;1910;49.042;9.028;2023-09-30T13:03:37;22.30;98.20
3790;DHT22;1910;49.042;9.028;2023-09-30T13:06:03;22.20;96.40
3790;DHT22;1910;49.042;9.028;2023-09-30T13:08:29;22.30;96.30
3790;DHT22;1910;49.042;9.028;2023-09-30T13:11:00;22.20;96.90
3790;DHT22;1910;49.042;9.028;2023-09-30T13:13:26;22.20;98.20
3790;DHT22;1910;49.042;9.028;2023-09-30T13:15:52;22.20;98.50
3790;DHT22;1910;49.042;9.028;2023-09-30T13:18:18;22.40;98.90
3790;DHT22;1910;49.042;9.028;2023-09-30T13:20:43;22.40;98.20
3790;DHT22;1910;49.042;9.028;2023-09-30T13:23:09;22.50;98.00
3790;DHT22;1910;49.042;9.028;2023-09-30T13:25:35;22.30;98.30
3790;DHT22;1910;49.042;9.028;2023-09-30T13:28:00;21.70;99.80
3790;DHT22;1910;49.042;9.028;2023-09-30T13:30:26;21.40;99.90
3790;DHT22;1910;49.042;9.028;2023-09-30T13:32:51;21.10;99.70
3790;DHT22;1910;49.042;9.028;2023-09-30T13:35:17;21.00;99.90
3790;DHT22;1910;49.042;9.028;2023-09-30T13:37:43;21.00;99.90
3790;DHT22;1910;49.042;9.028;2023-09-30T13:40:09;21.10;99.90
3790;DHT22;1910;49.042;9.028;2023-09-30T13:42:37;21.40;99.90
3790;DHT22;1910;49.042;9.028;2023-09-30T13:45:03;21.60;99.90
3790;DHT22;1910;49.042;9.028;2023-09-30T13:47:28;21.30;99.90
3790;DHT22;1910;49.042;9.028;2023-09-30T13:49:54;21.20;99.90
3790;DHT22;1910;49.042;9.028;2023-09-30T13:54:46;21.20;99.90
3790;DHT22;1910;49.042;9.028;2023-09-30T13:57:12;21.00;99.90
3790;DHT22;1910;49.042;9.028;2023-09-30T13:59:39;21.00;99.90
3790;DHT22;1910;49.042;9.028;2023-09-30T14:02:05;21.10;99.90
3790;DHT22;1910;49.042;9.028;2023-09-30T14:04:31;21.10;99.90
3790;DHT22;1910;49.042;9.028;2023-09-30T14:06:58;21.00;99.90
3790;DHT22;1910;49.042;9.028;2023-09-30T14:09:26;21.10;99.90
3790;DHT22;1910;49.042;9.028;2023-09-30T14:11:52;21.30;99.90
3790;DHT22;1910;49.042;9.028;2023-09-30T14:14:17;21.40;99.90
3790;DHT22;1910;49.042;9.028;2023-09-30T14:16:43;21.60;99.90
3790;DHT22;1910;49.042;9.028;2023-09-30T14:19:08;21.50;99.90
3790;DHT22;1910;49.042;9.028;2023-09-30T14:21:34;21.30;99.90
3790;DHT22;1910;49.042;9.028;2023-09-30T14:23:59;21.40;99.90
3790;DHT22;1910;49.042;9.028;2023-09-30T14:26:28;21.50;99.70
3790;DHT22;1910;49.042;9.028;2023-09-30T14:28:54;21.50;99.90
3790;DHT22;1910;49.042;9.028;2023-09-30T14:31:19;21.40;99.40
3790;DHT22;1910;49.042;9.028;2023-09-30T14:36:11;21.20;99.90
3790;DHT22;1910;49.042;9.028;2023-09-30T14:38:36;21.20;99.90
3790;DHT22;1910;49.042;9.028;2023-09-30T14:41:06;21.10;99.90
3790;DHT22;1910;49.042;9.028;2023-09-30T14:43:35;21.10;99.90
3790;DHT22;1910;49.042;9.028;2023-09-30T14:46:04;21.00;99.90
3790;DHT22;1910;49.042;9.028;2023-09-30T14:48:30;21.00;99.90
3790;DHT22;1910;49.042;9.028;2023-09-30T14:50:56;21.00;99.90
3790;DHT22;1910;49.042;9.028;2023-09-30T14:53:22;20.90;99.90
3790;DHT22;1910;49.042;9.028;2023-09-30T14:55:48;21.00;99.90
3790;DHT22;1910;49.042;9.028;2023-09-30T14:58:14;21.00;99.90
3790;DHT22;1910;49.042;9.028;2023-09-30T15:00:39;21.00;99.90
3790;DHT22;1910;49.042;9.028;2023-09-30T15:03:05;20.90;99.90
3790;DHT22;1910;49.042;9.028;2023-09-30T15:05:32;21.00;99.90
3790;DHT22;1910;49.042;9.028;2023-09-30T15:07:57;20.90;99.90
3790;DHT22;1910;49.042;9.028;2023-09-30T15:10:25;20.80;99.90
3790;DHT22;1910;49.042;9.028;2023-09-30T15:12:50;20.80;99.90
3790;DHT22;1910;49.042;9.028;2023-09-30T15:15:16;20.70;99.90
3790;DHT22;1910;49.042;9.028;2023-09-30T15:17:42;20.80;99.90
3790;DHT22;1910;49.042;9.028;2023-09-30T15:20:09;20.80;99.90
3790;DHT22;1910;49.042;9.028;2023-09-30T15:22:34;21.10;99.90
3790;DHT22;1910;49.042;9.028;2023-09-30T15:25:01;21.10;99.90
3790;DHT22;1910;49.042;9.028;2023-09-30T15:27:27;21.00;99.90
3790;DHT22;1910;49.042;9.028;2023-09-30T15:29:52;20.90;99.90
3790;DHT22;1910;49.042;9.028;2023-09-30T15:32:18;20.90;99.90
3790;DHT22;1910;49.042;9.028;2023-09-30T15:34:44;20.90;99.90
3790;DHT22;1910;49.042;9.028;2023-09-30T15:37:09;20.70;99.90
3790;DHT22;1910;49.042;9.028;2023-09-30T15:39:40;20.60;99.90
3790;DHT22;1910;49.042;9.028;2023-09-30T15:42:06;20.80;99.90
3790;DHT22;1910;49.042;9.028;2023-09-30T15:44:34;20.90;99.90
3790;DHT22;1910;49.042;9.028;2023-09-30T15:47:00;20.80;99.90
3790;DHT22;1910;49.042;9.028;2023-09-30T15:49:25;21.00;99.90
3790;DHT22;1910;49.042;9.028;2023-09-30T15:51:51;20.90;99.90
3790;DHT22;1910;49.042;9.028;2023-09-30T15:54:17;20.90;99.90
3790;DHT22;1910;49.042;9.028;2023-09-30T15:56:42;21.30;99.90
3790;DHT22;1910;49.042;9.028;2023-09-30T15:59:08;21.00;99.90
3790;DHT22;1910;49.042;9.028;2023-09-30T16:01:36;20.70;99.90
3790;DHT22;1910;49.042;9.028;2023-09-30T16:04:02;20.50;99.90
3790;DHT22;1910;49.042;9.028;2023-09-30T16:06:28;20.10;99.90
3790;DHT22;1910;49.042;9.028;2023-09-30T16:08:53;20.00;99.90
3790;DHT22;1910;49.042;9.028;2023-09-30T16:11:26;19.80;99.90
3790;DHT22;1910;49.042;9.028;2023-09-30T16:13:52;19.70;99.90
3790;DHT22;1910;49.042;9.028;2023-09-30T16:16:18;19.60;99.90
3790;DHT22;1910;49.042;9.028;2023-09-30T16:18:44;19.60;99.90
3790;DHT22;1910;49.042;9.028;2023-09-30T16:21:10;19.60;99.90
3790;DHT22;1910;49.042;9.028;2023-09-30T16:23:36;19.80;99.90
3790;DHT22;1910;49.042;9.028;2023-09-30T16:26:02;19.50;99.90
3790;DHT22;1910;49.042;9.028;2023-09-30T16:28:27;20.40;99.90
3790;DHT22;1910;49.042;9.028;2023-09-30T16:30:53;19.50;99.90
3790;DHT22;1910;49.042;9.028;2023-09-30T16:33:18;19.40;99.90
3790;DHT22;1910;49.042;9.028;2023-09-30T16:38:18;19.40;99.90
3790;DHT22;1910;49.042;9.028;2023-09-30T16:40:53;19.40;99.90
3790;DHT22;1910;49.042;9.028;2023-09-30T16:43:19;19.40;99.90
3790;DHT22;1910;49.042;9.028;2023-09-30T16:50:43;18.80;99.90
3790;DHT22;1910;49.042;9.028;2023-09-30T16:55:36;18.60;99.90
3790;DHT22;1910;49.042;9.028;2023-09-30T16:58:02;18.90;99.90
3790;DHT22;1910;49.042;9.028;2023-09-30T17:02:54;18.10;99.90
3790;DHT22;1910;49.042;9.028;2023-09-30T17:07:46;17.60;99.90
3790;DHT22;1910;49.042;9.028;2023-09-30T17:15:05;17.10;99.90
3790;DHT22;1910;49.042;9.028;2023-09-30T17:17:32;16.80;99.90
3790;DHT22;1910;49.042;9.028;2023-09-30T17:22:24;16.60;99.90
3790;DHT22;1910;49.042;9.028;2023-09-30T17:27:16;16.20;99.90
3790;DHT22;1910;49.042;9.028;2023-09-30T17:32:08;16.00;99.90
3790;DHT22;1910;49.042;9.028;2023-09-30T17:34:33;15.80;99.90
3790;DHT22;1910;49.042;9.028;2023-09-30T17:37:04;16.60;99.90
3790;DHT22;1910;49.042;9.028;2023-09-30T17:39:30;15.60;99.90
3790;DHT22;1910;49.042;9.028;2023-09-30T17:41:56;15.50;99.90
3790;DHT22;1910;49.042;9.028;2023-09-30T17:44:22;17.10;99.90
3790;DHT22;1910;49.042;9.028;2023-09-30T17:49:14;15.30;99.90
3790;DHT22;1910;49.042;9.028;2023-09-30T17:51:39;16.30;99.90
3790;DHT22;1910;49.042;9.028;2023-09-30T17:54:05;15.20;99.90
3790;DHT22;1910;49.042;9.028;2023-09-30T17:56:30;15.10;99.90
3790;DHT22;1910;49.042;9.028;2023-09-30T18:01:22;15.00;99.90
3790;DHT22;1910;49.042;9.028;2023-09-30T18:03:50;15.00;99.90
3790;DHT22;1910;49.042;9.028;2023-09-30T18:06:16;15.00;99.90
3790;DHT22;1910;49.042;9.028;2023-09-30T18:08:43;14.90;99.90
3790;DHT22;1910;49.042;9.028;2023-09-30T18:11:09;14.90;99.90
3790;DHT22;1910;49.042;9.028;2023-09-30T18:13:36;15.10;99.90
3790;DHT22;1910;49.042;9.028;2023-09-30T18:18:29;14.90;99.90
3790;DHT22;1910;49.042;9.028;2023-09-30T18:20:55;14.80;99.90
3790;DHT22;1910;49.042;9.028;2023-09-30T18:28:14;14.70;99.90
3790;DHT22;1910;49.042;9.028;2023-09-30T18:30:40;14.60;99.90
3790;DHT22;1910;49.042;9.028;2023-09-30T18:33:06;15.90;99.90
3790;DHT22;1910;49.042;9.028;2023-09-30T18:45:17;14.50;99.90
3790;DHT22;1910;49.042;9.028;2023-09-30T18:52:35;14.60;99.90
3790;DHT22;1910;49.042;9.028;2023-09-30T18:55:00;15.30;99.90
3790;DHT22;1910;49.042;9.028;2023-09-30T19:04:46;15.00;99.90
3790;DHT22;1910;49.042;9.028;2023-09-30T19:07:11;15.20;99.90
3790;DHT22;1910;49.042;9.028;2023-09-30T19:12:03;15.20;99.90
3790;DHT22;1910;49.042;9.028;2023-09-30T19:16:55;15.40;99.90
3790;DHT22;1910;49.042;9.028;2023-09-30T19:19:21;15.40;99.90
3790;DHT22;1910;49.042;9.028;2023-09-30T19:43:47;15.70;99.90
3790;DHT22;1910;49.042;9.028;2023-09-30T19:46:13;16.50;99.90
3790;DHT22;1910;49.042;9.028;2023-09-30T19:48:39;15.60;99.90
3790;DHT22;1910;49.042;9.028;2023-09-30T19:51:05;16.50;99.90
3790;DHT22;1910;49.042;9.028;2023-09-30T19:56:04;15.00;99.90
3790;DHT22;1910;49.042;9.028;2023-09-30T19:58:30;14.50;99.90
3790;DHT22;1910;49.042;9.028;2023-09-30T20:00:56;14.60;99.90
3790;DHT22;1910;49.042;9.028;2023-09-30T20:03:23;14.50;99.90
3790;DHT22;1910;49.042;9.028;2023-09-30T20:05:49;14.30;99.90
3790;DHT22;1910;49.042;9.028;2023-09-30T20:08:15;14.50;99.90
3790;DHT22;1910;49.042;9.028;2023-09-30T20:13:06;14.60;99.90
3790;DHT22;1910;49.042;9.028;2023-09-30T20:15:35;14.70;99.90
3790;DHT22;1910;49.042;9.028;2023-09-30T20:18:02;14.80;99.90
3790;DHT22;1910;49.042;9.028;2023-09-30T20:22:55;14.80;99.90
3790;DHT22;1910;49.042;9.028;2023-09-30T20:25:20;14.80;99.90
3790;DHT22;1910;49.042;9.028;2023-09-30T20:27:46;14.80;99.90
3790;DHT22;1910;49.042;9.028;2023-09-30T20:30:12;14.60;99.90
3790;DHT22;1910;49.042;9.028;2023-09-30T20:32:39;14.50;99.90
3790;DHT22;1910;49.042;9.028;2023-09-30T20:35:05;14.50;99.90